Terminal Aerodrome Forecast
Issued by NWS Sterling, VA

Home | Current Version | Previous Version | Text Only | Print | Product List | Glossary On
Versions: 1 2 3 4 5 6 7 8 9 10 11 12 13 14 15 16 17 18 19 20 21 22 23
182
FTUS41 KLWX 120845 AAA
TAFBWI
TAF AMD
KBWI 120845Z 1209/1312 28004KT P6SM FEW150 SCT200
     FM121600 22005KT P6SM BKN100
     FM130600 28011G22KT P6SM BKN040
     FM130800 29012G25KT P6SM SCT040=

USA.gov is the U.S. government's official web portal to all federal, state and local government web resources and services.